Time;durP1;ratioP1;P1;durP2;ratioP2;P2;SDS_P1;SDS_P2;PMS_P1;PMS_P2;Temp;Humidity;BMP_temperature;BMP_pressure;BME280_temperature;BME280_humidity;BME280_pressure;Samples;Min_cycle;Max_cycle;Signal;HPM_P1;HPM_P2
2023/08/02 00:02:12;;;;;;;2.30;2.10;;;;;17.10;96180.00;;;;5050262;28;20220;-89
2023/08/02 00:05:07;;;;;;;3.23;1.87;;;;;17.10;96198.00;;;;5053363;28;20205;-91
2023/08/02 00:08:19;;;;;;;3.33;2.07;;;;;16.90;96188.00;;;;5049648;28;20671;-91
2023/08/02 00:11:17;;;;;;;7.37;1.40;;;;;17.10;96195.00;;;;5051939;28;20208;-89
2023/08/02 00:14:08;;;;;;;4.57;2.27;;;;;17.20;96188.00;;;;5051682;28;20235;-88
2023/08/02 00:17:00;;;;;;;2.57;1.80;;;;;17.30;96193.00;;;;5049992;28;20205;-89
2023/08/02 00:19:53;;;;;;;2.67;2.00;;;;;17.30;96185.00;;;;5052993;28;20690;-90
2023/08/02 00:22:43;;;;;;;2.00;1.90;;;;;17.30;96185.00;;;;5044623;28;20221;-90
2023/08/02 00:25:36;;;;;;;3.57;2.07;;;;;17.30;96191.00;;;;5051607;28;20205;-88
2023/08/02 00:28:25;;;;;;;5.37;2.30;;;;;17.30;96193.00;;;;5050181;28;20587;-88
2023/08/02 00:31:15;;;;;;;1.93;1.40;;;;;17.20;96181.00;;;;5051969;28;20571;-88
2023/08/02 00:34:08;;;;;;;5.53;1.83;;;;;16.70;96186.00;;;;5050442;28;20275;-89
2023/08/02 00:36:59;;;;;;;3.13;1.90;;;;;17.00;96187.00;;;;5048897;28;20223;-89
2023/08/02 00:39:56;;;;;;;7.60;1.97;;;;;17.00;96182.00;;;;5051776;28;20204;-90
2023/08/02 00:42:54;;;;;;;3.23;1.20;;;;;16.70;96187.00;;;;5052572;28;20274;-89
2023/08/02 00:45:43;;;;;;;4.67;1.97;;;;;16.60;96185.00;;;;5051553;28;20201;-89
2023/08/02 00:48:46;;;;;;;4.07;1.30;;;;;16.70;96181.00;;;;5050855;28;20205;-90
2023/08/02 00:51:35;;;;;;;1.47;1.17;;;;;16.80;96187.00;;;;5049895;28;20212;-89
2023/08/02 00:54:33;;;;;;;2.63;1.47;;;;;16.60;96185.00;;;;5050610;28;20607;-90
2023/08/02 00:57:41;;;;;;;4.07;1.20;;;;;16.70;96191.00;;;;5051079;28;20277;-90
2023/08/02 01:00:41;;;;;;;4.87;2.03;;;;;16.70;96176.00;;;;5047398;28;20204;-90
2023/08/02 01:03:45;;;;;;;2.07;1.60;;;;;16.80;96192.00;;;;5046793;28;20228;-90
2023/08/02 01:06:56;;;;;;;3.17;1.43;;;;;16.70;96185.00;;;;5048352;28;20228;-89
2023/08/02 01:09:51;;;;;;;1.50;1.40;;;;;16.60;96183.00;;;;5049975;28;20212;-90
2023/08/02 01:12:53;;;;;;;3.50;1.20;;;;;16.50;96184.00;;;;5048328;28;20265;-90
2023/08/02 01:16:08;;;;;;;2.20;1.33;;;;;16.20;96195.00;;;;5051046;28;20227;-90
2023/08/02 01:19:01;;;;;;;1.50;1.40;;;;;16.20;96186.00;;;;5050691;28;20204;-89
2023/08/02 01:21:55;;;;;;;3.57;1.50;;;;;16.40;96192.00;;;;5050277;28;20274;-90
2023/08/02 01:24:53;;;;;;;2.20;1.27;;;;;16.50;96183.00;;;;5050328;28;20212;-89
2023/08/02 01:27:52;;;;;;;1.50;1.37;;;;;16.20;96186.00;;;;5050577;28;20714;-88
2023/08/02 01:30:41;;;;;;;1.33;1.23;;;;;16.40;96183.00;;;;5052659;28;20209;-88
2023/08/02 01:33:37;;;;;;;3.43;1.13;;;;;16.20;96172.00;;;;5052194;28;20216;-88
2023/08/02 01:36:26;;;;;;;3.33;1.53;;;;;16.30;96179.00;;;;5061675;28;20201;-90
2023/08/02 01:39:17;;;;;;;2.47;1.53;;;;;16.40;96176.00;;;;5074634;28;20184;-89
2023/08/02 01:42:14;;;;;;;1.30;1.20;;;;;16.40;96178.00;;;;5069336;28;20217;-88
2023/08/02 01:45:04;;;;;;;1.50;1.37;;;;;16.50;96169.00;;;;5049202;28;20207;-88
2023/08/02 01:47:55;;;;;;;2.73;1.77;;;;;16.50;96168.00;;;;5049566;28;20232;-87
2023/08/02 01:50:44;;;;;;;5.03;1.50;;;;;16.40;96164.00;;;;5048832;28;20204;-89
2023/08/02 01:53:33;;;;;;;3.77;1.47;;;;;16.40;96162.00;;;;5049832;28;20300;-89
2023/08/02 01:56:32;;;;;;;1.47;1.27;;;;;16.40;96168.00;;;;5045742;28;20216;-89
2023/08/02 01:59:21;;;;;;;3.00;1.37;;;;;16.10;96166.00;;;;5048953;28;20657;-90
2023/08/02 02:02:17;;;;;;;1.50;1.40;;;;;16.10;96160.00;;;;5047037;28;20204;-88
2023/08/02 02:05:07;;;;;;;1.50;1.30;;;;;16.00;96162.00;;;;5049328;28;20216;-89
2023/08/02 02:08:31;;;;;;;1.23;1.13;;;;;15.80;96171.00;;;;5039935;28;20232;-89
2023/08/02 02:11:23;;;;;;;1.53;1.07;;;;;16.00;96159.00;;;;5045215;28;20215;-87
2023/08/02 02:14:14;;;;;;;1.33;1.23;;;;;16.00;96163.00;;;;5048305;28;20757;-88
2023/08/02 02:17:04;;;;;;;2.20;1.50;;;;;16.20;96148.00;;;;5046920;28;20201;-87
2023/08/02 02:19:53;;;;;;;1.30;1.20;;;;;16.20;96162.00;;;;5046577;28;20232;-86
2023/08/02 02:22:42;;;;;;;1.43;1.20;;;;;16.10;96152.00;;;;5045039;28;20680;-88
2023/08/02 02:25:38;;;;;;;1.27;1.17;;;;;16.10;96153.00;;;;5050621;28;20213;-89
2023/08/02 02:28:28;;;;;;;4.47;1.77;;;;;16.10;96154.00;;;;5048154;28;20318;-87
2023/08/02 02:31:21;;;;;;;2.97;1.10;;;;;15.80;96154.00;;;;5046506;28;20208;-87
2023/08/02 02:34:10;;;;;;;3.30;1.03;;;;;16.00;96153.00;;;;5048377;28;20224;-87
2023/08/02 02:37:02;;;;;;;2.17;1.50;;;;;15.90;96158.00;;;;5046290;28;20323;-88
2023/08/02 02:39:54;;;;;;;1.50;1.40;;;;;16.00;96160.00;;;;5047768;28;20282;-88
2023/08/02 02:42:46;;;;;;;2.40;1.37;;;;;15.80;96169.00;;;;5047683;28;20200;-88
2023/08/02 02:45:38;;;;;;;2.07;1.20;;;;;15.50;96146.00;;;;5046612;28;20217;-88
2023/08/02 02:48:31;;;;;;;1.50;1.30;;;;;15.60;96150.00;;;;5045083;28;20200;-87
2023/08/02 02:51:21;;;;;;;3.60;1.60;;;;;15.50;96157.00;;;;5045045;28;20283;-88
2023/08/02 02:54:12;;;;;;;1.17;0.87;;;;;15.60;96163.00;;;;5049241;28;20213;-87
2023/08/02 02:57:02;;;;;;;3.17;1.50;;;;;15.70;96159.00;;;;5047152;28;20672;-88
2023/08/02 02:59:53;;;;;;;2.27;1.37;;;;;15.80;96159.00;;;;5046860;28;20259;-87
2023/08/02 03:02:44;;;;;;;8.63;1.30;;;;;15.80;96166.00;;;;5047539;28;20230;-87
2023/08/02 03:05:35;;;;;;;1.70;1.60;;;;;15.70;96170.00;;;;5046289;28;20640;-87
2023/08/02 03:08:24;;;;;;;1.43;1.33;;;;;15.80;96177.00;;;;5044515;28;20204;-87
2023/08/02 03:11:13;;;;;;;2.50;1.40;;;;;15.80;96173.00;;;;5048189;28;20201;-87
2023/08/02 03:14:04;;;;;;;1.80;1.30;;;;;15.70;96167.00;;;;5045605;28;20244;-87
2023/08/02 03:16:57;;;;;;;4.10;1.50;;;;;15.60;96165.00;;;;5046600;28;20203;-88
2023/08/02 03:19:46;;;;;;;2.10;1.10;;;;;15.30;96180.00;;;;5044773;28;20196;-88
2023/08/02 03:22:38;;;;;;;2.73;1.20;;;;;15.60;96172.00;;;;5047777;28;20208;-87
2023/08/02 03:25:27;;;;;;;3.30;1.63;;;;;15.30;96173.00;;;;5047146;28;20232;-87
2023/08/02 03:28:16;;;;;;;3.30;1.20;;;;;15.50;96170.00;;;;5047959;28;20208;-87
2023/08/02 03:31:06;;;;;;;4.53;1.67;;;;;15.60;96162.00;;;;5053941;28;20215;-87
2023/08/02 03:33:58;;;;;;;3.20;1.40;;;;;15.70;96159.00;;;;5044747;28;20220;-88
2023/08/02 03:36:54;;;;;;;2.43;1.43;;;;;15.30;96167.00;;;;5045641;28;20203;-88
2023/08/02 03:40:21;;;;;;;1.27;1.17;;;;;14.60;96167.00;;;;5050585;28;20663;-89
2023/08/02 03:43:11;;;;;;;2.30;1.73;;;;;14.50;96171.00;;;;5052121;28;20224;-87
2023/08/02 03:46:07;;;;;;;1.30;1.00;;;;;14.30;96172.00;;;;5050856;28;20584;-88
2023/08/02 03:48:59;;;;;;;1.30;1.20;;;;;14.80;96161.00;;;;5052692;28;20419;-87
2023/08/02 03:51:49;;;;;;;1.53;1.30;;;;;15.10;96169.00;;;;5050693;28;20212;-87
2023/08/02 03:54:38;;;;;;;1.63;1.20;;;;;15.00;96168.00;;;;5049820;28;20228;-88
2023/08/02 03:57:29;;;;;;;5.60;1.50;;;;;15.00;96170.00;;;;5050159;28;20214;-88
2023/08/02 04:03:43;;;;;;;2.80;1.53;;;;;14.20;96175.00;;;;5047972;28;20228;-87
2023/08/02 04:06:32;;;;;;;5.43;1.60;;;;;14.80;96187.00;;;;5052120;28;20223;-87
2023/08/02 04:09:21;;;;;;;1.40;1.27;;;;;15.00;96178.00;;;;5053694;28;20201;-86
2023/08/02 04:12:11;;;;;;;5.37;1.20;;;;;15.10;96184.00;;;;5053949;28;20814;-86
2023/08/02 04:15:01;;;;;;;3.37;1.30;;;;;15.10;96177.00;;;;5051570;28;20279;-86
2023/08/02 04:17:51;;;;;;;1.80;1.27;;;;;15.40;96188.00;;;;5077424;28;20235;-86
2023/08/02 04:20:40;;;;;;;3.40;1.30;;;;;15.30;96188.00;;;;5077342;28;20188;-87
2023/08/02 04:23:32;;;;;;;4.97;1.20;;;;;14.90;96177.00;;;;5076776;28;20208;-87
2023/08/02 04:26:27;;;;;;;1.73;1.60;;;;;14.80;96173.00;;;;5051290;28;20587;-88
2023/08/02 04:29:17;;;;;;;2.20;1.07;;;;;14.90;96180.00;;;;5049215;28;20201;-87
2023/08/02 04:32:10;;;;;;;1.23;1.13;;;;;15.20;96182.00;;;;5048705;28;20294;-87
2023/08/02 04:34:59;;;;;;;2.60;1.70;;;;;15.20;96190.00;;;;5048852;28;20197;-87
2023/08/02 04:37:48;;;;;;;1.77;1.50;;;;;15.40;96188.00;;;;5051937;28;20228;-87
2023/08/02 04:40:45;;;;;;;1.73;1.23;;;;;15.20;96188.00;;;;5049198;28;20208;-88
2023/08/02 04:43:40;;;;;;;1.00;0.90;;;;;15.10;96180.00;;;;5050452;28;20278;-88
2023/08/02 04:46:29;;;;;;;2.33;1.57;;;;;15.10;96189.00;;;;5051046;28;20282;-86
2023/08/02 04:49:21;;;;;;;1.50;1.40;;;;;15.20;96185.00;;;;5050131;28;20208;-87
2023/08/02 04:52:11;;;;;;;1.53;1.43;;;;;15.20;96187.00;;;;5049725;28;20201;-88
2023/08/02 04:55:01;;;;;;;1.53;1.40;;;;;15.30;96196.00;;;;5049309;28;20204;-87
2023/08/02 04:57:55;;;;;;;4.00;1.67;;;;;15.50;96195.00;;;;5056055;28;20208;-87
2023/08/02 05:00:45;;;;;;;1.43;1.20;;;;;15.20;96192.00;;;;5050488;28;20794;-90
2023/08/02 05:03:43;;;;;;;1.13;1.10;;;;;15.60;96184.00;;;;5049902;28;20231;-87
2023/08/02 05:09:48;;;;;;;0.97;0.97;;;;;15.80;96192.00;;;;5047079;28;20697;-90
2023/08/02 05:12:40;;;;;;;3.87;2.33;;;;;15.80;96197.00;;;;5050167;28;20204;-88
2023/08/02 05:15:32;;;;;;;3.23;2.13;;;;;16.00;96194.00;;;;5051014;28;20236;-89
2023/08/02 05:18:21;;;;;;;5.20;3.03;;;;;16.20;96201.00;;;;5047168;28;20354;-89
2023/08/02 05:21:20;;;;;;;2.50;2.23;;;;;16.50;96197.00;;;;5050378;28;20846;-90
2023/08/02 05:24:21;;;;;;;1.77;1.60;;;;;16.40;96198.00;;;;5048158;28;20224;-89
2023/08/02 05:27:12;;;;;;;1.70;1.30;;;;;16.30;96194.00;;;;5050798;28;20251;-91
2023/08/02 05:30:18;;;;;;;2.30;1.50;;;;;16.10;96176.00;;;;5049982;28;20204;-90
2023/08/02 05:33:32;;;;;;;1.87;1.60;;;;;16.10;96196.00;;;;5050888;28;20715;-92
2023/08/02 05:36:28;;;;;;;1.87;1.30;;;;;16.30;96193.00;;;;5049466;28;20192;-88
2023/08/02 05:39:17;;;;;;;2.70;1.60;;;;;16.50;96185.00;;;;5051957;28;20200;-89
2023/08/02 05:42:09;;;;;;;2.87;1.30;;;;;17.30;96188.00;;;;5050711;28;20208;-90
2023/08/02 05:45:00;;;;;;;4.03;2.73;;;;;17.40;96184.00;;;;5045921;28;20251;-90
2023/08/02 05:51:04;;;;;;;2.70;2.03;;;;;17.20;96192.00;;;;5050258;28;20935;-90
2023/08/02 05:53:55;;;;;;;2.20;2.00;;;;;17.30;96176.00;;;;5048451;28;20216;-90
2023/08/02 05:56:44;;;;;;;1.67;1.50;;;;;17.30;96174.00;;;;5050826;28;20692;-87
2023/08/02 05:59:43;;;;;;;2.40;1.80;;;;;17.60;96171.00;;;;5051641;28;20897;-90
2023/08/02 06:02:38;;;;;;;4.73;2.23;;;;;17.70;96173.00;;;;5048270;28;20207;-89
2023/08/02 06:05:32;;;;;;;2.83;2.07;;;;;17.90;96173.00;;;;5050291;28;20274;-90
2023/08/02 06:08:24;;;;;;;4.37;1.80;;;;;18.30;96179.00;;;;5050392;28;20566;-89
2023/08/02 06:11:14;;;;;;;3.13;2.03;;;;;18.60;96187.00;;;;5047117;28;20295;-89
2023/08/02 06:14:09;;;;;;;3.93;1.80;;;;;18.70;96178.00;;;;5047874;28;20220;-90
2023/08/02 06:17:11;;;;;;;2.83;2.20;;;;;18.60;96176.00;;;;5048258;28;20197;-89
2023/08/02 06:20:11;;;;;;;3.70;2.20;;;;;18.70;96170.00;;;;5048708;28;20254;-91
2023/08/02 06:23:01;;;;;;;2.57;2.00;;;;;18.70;96174.00;;;;5047608;28;20225;-90
2023/08/02 06:25:58;;;;;;;3.60;2.57;;;;;18.90;96186.00;;;;5050301;28;20272;-91
2023/08/02 06:28:48;;;;;;;5.03;1.97;;;;;19.20;96186.00;;;;5050553;28;20205;-91
2023/08/02 06:31:43;;;;;;;3.10;1.80;;;;;19.30;96178.00;;;;5046598;28;20292;-91
2023/08/02 06:34:53;;;;;;;4.50;2.03;;;;;19.80;96175.00;;;;5049827;28;20714;-91
2023/08/02 06:37:51;;;;;;;5.90;2.30;;;;;19.70;96176.00;;;;5045059;28;20599;-90
2023/08/02 06:40:47;;;;;;;4.17;1.70;;;;;19.50;96162.00;;;;5050503;28;20219;-91
2023/08/02 06:43:43;;;;;;;3.00;1.73;;;;;19.40;96172.00;;;;5049984;28;20700;-90
2023/08/02 06:46:35;;;;;;;4.03;1.57;;;;;19.30;96166.00;;;;5030976;28;20216;-90
2023/08/02 06:49:24;;;;;;;5.67;1.77;;;;;19.70;96166.00;;;;5045570;28;20221;-92
2023/08/02 06:52:45;;;;;;;4.67;2.23;;;;;19.80;96174.00;;;;5048481;28;20236;-90
2023/08/02 06:55:49;;;;;;;2.73;1.97;;;;;20.20;96178.00;;;;5045908;28;20712;-91
2023/08/02 06:58:38;;;;;;;2.37;1.60;;;;;20.20;96181.00;;;;5048512;28;20207;-92
2023/08/02 07:01:29;;;;;;;1.70;1.60;;;;;20.20;96180.00;;;;5045136;28;20683;-92
2023/08/02 07:04:18;;;;;;;3.33;2.43;;;;;20.50;96185.00;;;;5049229;28;20216;-91
2023/08/02 07:07:07;;;;;;;1.80;1.70;;;;;20.50;96180.00;;;;5044133;28;20283;-90
2023/08/02 07:09:58;;;;;;;2.10;1.90;;;;;21.10;96167.00;;;;5045208;28;20571;-90
2023/08/02 07:12:48;;;;;;;3.67;2.07;;;;;21.60;96173.00;;;;5049403;28;20295;-90
2023/08/02 07:15:37;;;;;;;2.47;1.77;;;;;21.60;96181.00;;;;5049601;28;20693;-90
2023/08/02 07:18:26;;;;;;;2.07;1.87;;;;;21.70;96184.00;;;;5047826;28;20315;-89
2023/08/02 07:21:16;;;;;;;6.73;2.10;;;;;21.80;96183.00;;;;5050648;28;20269;-91
2023/08/02 07:24:06;;;;;;;4.93;1.87;;;;;21.30;96189.00;;;;5049774;28;20685;-90
2023/08/02 07:26:56;;;;;;;6.20;1.93;;;;;21.70;96179.00;;;;5051695;28;20217;-90
2023/08/02 07:29:51;;;;;;;3.30;1.97;;;;;22.10;96184.00;;;;5052318;28;20300;-90
2023/08/02 07:32:43;;;;;;;4.33;1.80;;;;;22.20;96199.00;;;;5048592;28;20197;-90
2023/08/02 07:35:37;;;;;;;1.60;1.50;;;;;22.10;96180.00;;;;5050961;28;20204;-89
2023/08/02 07:38:27;;;;;;;10.30;2.30;;;;;22.90;96177.00;;;;5049320;28;20200;-91
2023/08/02 07:41:16;;;;;;;4.90;1.97;;;;;22.60;96185.00;;;;5050700;28;20257;-91
2023/08/02 07:44:13;;;;;;;2.97;1.63;;;;;22.90;96190.00;;;;5049703;28;20216;-90
2023/08/02 07:47:02;;;;;;;2.97;1.23;;;;;22.90;96186.00;;;;5044557;28;20323;-89
2023/08/02 07:50:18;;;;;;;2.10;1.90;;;;;23.00;96192.00;;;;5047132;28;20197;-91
2023/08/02 07:53:14;;;;;;;8.37;2.00;;;;;23.40;96193.00;;;;5051564;28;20242;-90
2023/08/02 07:56:34;;;;;;;3.13;1.70;;;;;23.50;96206.00;;;;5051813;28;20584;-89
2023/08/02 07:59:25;;;;;;;3.83;1.43;;;;;23.20;96219.00;;;;5046237;28;20205;-89
2023/08/02 08:02:14;;;;;;;1.43;1.30;;;;;23.10;96198.00;;;;5043544;28;20258;-87
2023/08/02 08:05:04;;;;;;;2.63;1.53;;;;;23.60;96195.00;;;;5047455;28;20212;-89
2023/08/02 08:07:59;;;;;;;2.83;1.83;;;;;23.90;96184.00;;;;5047913;28;20409;-90
2023/08/02 08:10:51;;;;;;;2.70;1.30;;;;;24.20;96181.00;;;;5046505;28;20229;-89
2023/08/02 08:13:41;;;;;;;1.80;1.70;;;;;24.20;96183.00;;;;5048004;28;20224;-89
2023/08/02 08:16:31;;;;;;;2.33;1.57;;;;;24.30;96197.00;;;;5050914;28;20201;-89
2023/08/02 08:19:24;;;;;;;1.17;1.07;;;;;24.50;96191.00;;;;5043079;28;20247;-88
2023/08/02 08:22:21;;;;;;;1.43;1.33;;;;;24.50;96175.00;;;;5046728;28;21651;-87
2023/08/02 08:25:10;;;;;;;2.03;1.40;;;;;24.70;96177.00;;;;5050360;28;20200;-89
2023/08/02 08:28:00;;;;;;;2.37;1.37;;;;;24.60;96180.00;;;;5049052;28;20197;-89
2023/08/02 08:30:49;;;;;;;1.67;1.53;;;;;24.60;96171.00;;;;5038443;28;20197;-89
2023/08/02 08:33:39;;;;;;;2.03;1.53;;;;;24.60;96181.00;;;;5046692;28;20221;-88
2023/08/02 08:36:29;;;;;;;3.37;1.20;;;;;24.80;96178.00;;;;5050828;28;20200;-88
2023/08/02 08:39:19;;;;;;;2.53;1.60;;;;;24.90;96185.00;;;;5049687;28;20205;-90
2023/08/02 08:42:09;;;;;;;2.73;1.17;;;;;24.80;96180.00;;;;5048878;28;20196;-90
2023/08/02 08:44:59;;;;;;;2.30;1.87;;;;;24.90;96182.00;;;;5048847;28;20695;-90
2023/08/02 08:47:49;;;;;;;2.00;1.53;;;;;25.00;96179.00;;;;5050943;28;20251;-89
2023/08/02 08:50:41;;;;;;;1.57;1.47;;;;;25.00;96178.00;;;;5051090;28;20579;-90
2023/08/02 08:53:33;;;;;;;2.33;1.60;;;;;25.50;96176.00;;;;5048101;28;20216;-90
2023/08/02 08:56:24;;;;;;;1.23;1.10;;;;;25.60;96172.00;;;;5051733;28;20193;-91
2023/08/02 08:59:14;;;;;;;2.23;1.40;;;;;25.30;96176.00;;;;5049517;28;20679;-90
2023/08/02 09:02:05;;;;;;;1.97;1.40;;;;;25.40;96170.00;;;;5049604;28;20200;-89
2023/08/02 09:04:54;;;;;;;2.90;1.20;;;;;25.80;96162.00;;;;5052628;28;20228;-91
2023/08/02 09:07:45;;;;;;;2.10;1.47;;;;;26.30;96168.00;;;;5050485;28;20651;-89
2023/08/02 09:10:35;;;;;;;2.27;1.27;;;;;25.40;96157.00;;;;5048508;28;20208;-90
2023/08/02 09:13:24;;;;;;;1.73;1.40;;;;;25.50;96136.00;;;;5050023;28;20250;-92
2023/08/02 09:16:15;;;;;;;1.43;1.33;;;;;26.10;96140.00;;;;5050453;28;20672;-91
2023/08/02 09:19:04;;;;;;;1.90;1.23;;;;;26.30;96146.00;;;;5046430;28;20672;-90
2023/08/02 09:22:10;;;;;;;1.23;1.13;;;;;26.40;96141.00;;;;5047270;28;20196;-90
2023/08/02 09:25:03;;;;;;;2.27;1.33;;;;;26.50;96138.00;;;;5049255;28;20208;-90
2023/08/02 09:27:53;;;;;;;1.50;1.33;;;;;26.40;96134.00;;;;5050380;28;20278;-90
2023/08/02 09:30:43;;;;;;;1.40;1.13;;;;;26.90;96129.00;;;;5048700;28;20257;-92
2023/08/02 09:33:49;;;;;;;1.37;1.17;;;;;26.80;96134.00;;;;5047750;28;20244;-90
2023/08/02 09:36:38;;;;;;;3.63;1.23;;;;;27.30;96136.00;;;;5042849;28;20196;-91
2023/08/02 09:39:27;;;;;;;2.30;1.23;;;;;27.60;96137.00;;;;5050969;28;20763;-90
2023/08/02 09:42:18;;;;;;;3.80;1.50;;;;;27.40;96136.00;;;;5051464;28;20219;-91
2023/08/02 09:45:10;;;;;;;3.97;1.87;;;;;27.60;96132.00;;;;5051752;28;20201;-90
2023/08/02 09:48:00;;;;;;;2.77;2.33;;;;;28.00;96127.00;;;;5042683;28;20226;-90
2023/08/02 09:50:57;;;;;;;3.13;1.83;;;;;26.80;96134.00;;;;5049558;28;20190;-90
2023/08/02 09:53:55;;;;;;;2.70;2.23;;;;;26.20;96126.00;;;;5048107;28;20225;-86
2023/08/02 09:56:46;;;;;;;2.20;2.00;;;;;27.40;96116.00;;;;5050020;28;20198;-91
2023/08/02 09:59:38;;;;;;;2.40;2.20;;;;;28.50;96134.00;;;;5049825;28;20264;-89
2023/08/02 10:02:30;;;;;;;2.87;1.80;;;;;28.60;96124.00;;;;5048559;28;20206;-89
2023/08/02 10:05:20;;;;;;;2.13;1.93;;;;;27.30;96123.00;;;;5047109;28;20210;-89
2023/08/02 10:08:09;;;;;;;1.70;1.53;;;;;27.50;96131.00;;;;5048675;28;20229;-90
2023/08/02 10:11:00;;;;;;;4.13;1.80;;;;;27.90;96129.00;;;;5040837;28;20212;-89
2023/08/02 10:13:50;;;;;;;2.20;1.90;;;;;28.30;96136.00;;;;5050459;28;20312;-92
2023/08/02 10:16:42;;;;;;;3.10;1.87;;;;;25.90;96120.00;;;;5048317;28;20205;-89
2023/08/02 10:19:34;;;;;;;3.37;1.80;;;;;26.90;96120.00;;;;5046313;28;20205;-90
2023/08/02 10:22:23;;;;;;;1.67;1.50;;;;;27.30;96125.00;;;;5046736;28;20223;-89
2023/08/02 10:25:16;;;;;;;1.77;1.67;;;;;27.50;96126.00;;;;5049010;28;20192;-89
2023/08/02 10:28:06;;;;;;;5.07;2.33;;;;;27.70;96122.00;;;;5046294;28;20230;-89
2023/08/02 10:30:55;;;;;;;2.93;2.40;;;;;27.80;96131.00;;;;5043646;28;20608;-90
2023/08/02 10:33:45;;;;;;;2.43;1.70;;;;;28.00;96126.00;;;;5049456;28;20235;-89
2023/08/02 10:36:56;;;;;;;1.83;1.73;;;;;27.80;96130.00;;;;5047494;28;20206;-90
2023/08/02 10:39:55;;;;;;;2.33;1.83;;;;;28.10;96116.00;;;;5044516;28;20196;-90
2023/08/02 10:43:02;;;;;;;1.73;1.53;;;;;28.90;96114.00;;;;5047741;28;20272;-89
2023/08/02 10:46:15;;;;;;;2.23;1.50;;;;;29.00;96115.00;;;;5038645;28;20225;-90
2023/08/02 10:49:38;;;;;;;2.03;1.67;;;;;29.10;96104.00;;;;5047683;28;20834;-89
2023/08/02 10:52:30;;;;;;;1.50;1.37;;;;;29.40;96107.00;;;;5048438;28;20275;-89
2023/08/02 10:55:20;;;;;;;2.97;1.47;;;;;29.20;96114.00;;;;5047427;28;20645;-89
2023/08/02 10:58:09;;;;;;;3.23;2.00;;;;;29.30;96110.00;;;;5047276;28;20353;-90
2023/08/02 11:01:10;;;;;;;1.90;1.70;;;;;28.90;96108.00;;;;5045853;28;20203;-89
2023/08/02 11:04:03;;;;;;;6.80;1.80;;;;;28.70;96105.00;;;;5043270;28;20234;-90
2023/08/02 11:06:53;;;;;;;1.77;1.37;;;;;28.70;96115.00;;;;5044764;28;20766;-89
2023/08/02 11:09:43;;;;;;;1.77;1.53;;;;;28.50;96098.00;;;;5044970;28;20338;-91
2023/08/02 11:12:33;;;;;;;2.07;1.87;;;;;28.70;96088.00;;;;5047177;28;20240;-89
2023/08/02 11:15:23;;;;;;;1.43;1.23;;;;;28.60;96097.00;;;;5044761;28;20239;-90
2023/08/02 11:18:12;;;;;;;1.57;1.47;;;;;28.50;96089.00;;;;5047576;28;20670;-90
2023/08/02 11:21:09;;;;;;;2.10;1.43;;;;;28.20;96088.00;;;;5047117;28;20684;-88
2023/08/02 11:24:03;;;;;;;1.63;1.53;;;;;28.10;96066.00;;;;5044794;28;20220;-91
2023/08/02 11:26:54;;;;;;;2.03;1.53;;;;;27.90;96065.00;;;;5049146;28;20641;-89
2023/08/02 11:29:58;;;;;;;1.87;1.60;;;;;28.00;96069.00;;;;5046300;28;20214;-89
2023/08/02 11:32:48;;;;;;;4.10;1.80;;;;;27.90;96064.00;;;;5048019;28;20213;-88
2023/08/02 11:35:37;;;;;;;1.50;1.40;;;;;27.90;96053.00;;;;5047032;28;20263;-89
2023/08/02 11:38:26;;;;;;;1.50;1.30;;;;;28.50;96043.00;;;;5044802;28;20244;-89
2023/08/02 11:41:18;;;;;;;2.17;1.33;;;;;28.50;96048.00;;;;5047494;28;20973;-89
2023/08/02 11:44:15;;;;;;;1.57;1.47;;;;;27.90;96034.00;;;;5046580;28;20348;-89
2023/08/02 11:47:04;;;;;;;1.87;1.50;;;;;28.60;96032.00;;;;5048174;28;20249;-90
2023/08/02 11:49:56;;;;;;;2.00;1.40;;;;;27.70;96038.00;;;;5044837;28;20558;-89
2023/08/02 11:52:45;;;;;;;2.83;1.37;;;;;29.00;96014.00;;;;5043129;28;20252;-89
2023/08/02 11:55:36;;;;;;;1.90;1.47;;;;;29.80;96017.00;;;;5045773;28;20203;-89
2023/08/02 11:58:27;;;;;;;1.23;1.00;;;;;29.60;96028.00;;;;5046743;28;20199;-89
2023/08/02 12:01:16;;;;;;;5.17;1.23;;;;;29.50;96021.00;;;;5047062;28;20235;-88
2023/08/02 12:04:07;;;;;;;2.07;1.50;;;;;29.60;96025.00;;;;5049156;28;20634;-88
2023/08/02 12:06:57;;;;;;;1.60;1.50;;;;;29.70;96022.00;;;;5043991;28;20904;-89
2023/08/02 12:09:48;;;;;;;3.83;1.43;;;;;29.70;95997.00;;;;5047988;28;20750;-89
2023/08/02 12:12:37;;;;;;;1.63;1.50;;;;;30.00;96016.00;;;;5037813;28;20215;-88
2023/08/02 12:15:28;;;;;;;6.57;1.70;;;;;29.70;96009.00;;;;5041573;28;20203;-87
2023/08/02 12:18:17;;;;;;;3.53;1.40;;;;;29.80;96003.00;;;;5051668;28;20274;-88
2023/08/02 12:21:16;;;;;;;2.07;1.30;;;;;29.20;96002.00;;;;5051014;28;20198;-88
2023/08/02 12:24:13;;;;;;;1.87;1.30;;;;;29.10;95998.00;;;;5048012;28;20278;-90
2023/08/02 12:27:15;;;;;;;1.50;1.30;;;;;29.50;95980.00;;;;5049961;28;20207;-88
2023/08/02 12:30:15;;;;;;;2.63;1.10;;;;;29.70;95972.00;;;;5049118;28;20206;-87
2023/08/02 12:33:05;;;;;;;2.90;1.67;;;;;27.70;95958.00;;;;5044066;28;20715;-87
2023/08/02 12:35:55;;;;;;;1.27;1.10;;;;;28.60;95942.00;;;;5057905;28;20256;-88
2023/08/02 12:38:44;;;;;;;1.33;1.10;;;;;28.30;95945.00;;;;5050781;28;20239;-88
2023/08/02 12:41:33;;;;;;;2.70;1.20;;;;;29.90;95932.00;;;;5050973;28;20199;-89
2023/08/02 12:44:22;;;;;;;2.10;0.97;;;;;31.00;95963.00;;;;5048390;28;20265;-87
2023/08/02 12:47:11;;;;;;;2.03;1.33;;;;;31.10;95947.00;;;;5050910;28;20226;-90
2023/08/02 12:50:02;;;;;;;0.80;0.70;;;;;32.50;95929.00;;;;5049010;28;20206;-89
2023/08/02 12:52:51;;;;;;;1.10;1.00;;;;;33.40;95888.00;;;;5050644;28;20255;-90
2023/08/02 12:55:41;;;;;;;2.55;1.48;;;;;34.20;95895.00;;;;5049080;28;20350;-92
2023/08/02 12:58:30;;;;;;;5.88;1.20;;;;;35.10;95895.00;;;;5046615;28;20281;-93
2023/08/02 13:01:19;;;;;;;0.77;0.77;;;;;31.60;95970.00;;;;5046761;28;20201;-90
2023/08/02 13:04:08;;;;;;;1.42;1.33;;;;;29.40;95889.00;;;;5048138;28;20281;-88
2023/08/02 13:06:59;;;;;;;1.00;0.90;;;;;29.10;95897.00;;;;5047509;28;20732;-90
2023/08/02 13:09:48;;;;;;;1.50;1.40;;;;;29.40;95896.00;;;;5046766;28;20203;-88
2023/08/02 13:12:38;;;;;;;2.38;1.00;;;;;28.30;95875.00;;;;5047185;28;20214;-85
2023/08/02 13:15:27;;;;;;;1.63;1.30;;;;;28.50;95874.00;;;;5048784;28;20200;-87
2023/08/02 13:18:16;;;;;;;2.07;1.57;;;;;28.70;95871.00;;;;5046594;28;20235;-87
2023/08/02 13:21:05;;;;;;;1.93;1.23;;;;;29.50;95886.00;;;;5048249;28;20256;-85
2023/08/02 13:23:56;;;;;;;1.20;1.10;;;;;27.00;95882.00;;;;5045494;28;20223;-83
2023/08/02 13:26:45;;;;;;;1.43;1.00;;;;;29.10;95868.00;;;;5040702;28;20223;-88
2023/08/02 13:29:37;;;;;;;2.30;1.40;;;;;28.80;95861.00;;;;5046484;28;20198;-87
2023/08/02 13:32:34;;;;;;;3.03;1.17;;;;;27.70;95914.00;;;;5047345;28;20255;-88
2023/08/02 13:35:37;;;;;;;6.37;1.20;;;;;27.30;95907.00;;;;5046075;28;20203;-87
2023/08/02 13:38:26;;;;;;;1.20;0.93;;;;;28.30;95896.00;;;;5045834;28;20693;-87
2023/08/02 13:41:41;;;;;;;1.63;1.37;;;;;28.40;95898.00;;;;5049021;28;20207;-84
2023/08/02 13:44:33;;;;;;;1.43;1.33;;;;;27.60;95844.00;;;;5046800;28;20229;-88
2023/08/02 13:47:31;;;;;;;1.63;1.30;;;;;28.90;95849.00;;;;5045610;28;20253;-87
2023/08/02 13:50:21;;;;;;;3.60;1.80;;;;;29.00;95840.00;;;;5045801;28;20209;-89
2023/08/02 13:53:10;;;;;;;4.43;2.13;;;;;30.40;95835.00;;;;5048234;28;20237;-87
2023/08/02 13:56:00;;;;;;;15.45;4.65;;;;;31.50;95844.00;;;;5047802;28;20235;-88
2023/08/02 13:58:50;;;;;;;1.20;1.07;;;;;29.90;95839.00;;;;5047982;28;20231;-88
2023/08/02 14:01:39;;;;;;;1.90;1.60;;;;;29.10;95901.00;;;;5048424;28;20256;-88
2023/08/02 14:04:28;;;;;;;1.80;1.43;;;;;27.90;95874.00;;;;5002728;28;1144947;-88
2023/08/02 14:07:18;;;;;;;2.00;1.00;;;;;28.60;95835.00;;;;5049322;28;20241;-86
2023/08/02 14:10:07;;;;;;;1.70;1.50;;;;;29.10;95835.00;;;;5045244;28;20663;-87
2023/08/02 14:12:58;;;;;;;1.87;1.33;;;;;29.00;95845.00;;;;5048683;28;20704;-88
2023/08/02 14:15:48;;;;;;;1.73;1.03;;;;;28.90;95834.00;;;;5038826;28;20209;-86
2023/08/02 14:18:38;;;;;;;1.80;1.33;;;;;29.70;95839.00;;;;5047073;28;20613;-85
2023/08/02 14:21:27;;;;;;;9.90;3.30;;;;;30.60;95834.00;;;;5044504;28;20666;-84
2023/08/02 14:24:16;;;;;;;1.37;1.10;;;;;31.70;95864.00;;;;5047149;28;20231;-85
2023/08/02 14:27:07;;;;;;;1.52;1.42;;;;;32.00;95822.00;;;;5048687;28;20561;-86
2023/08/02 14:29:56;;;;;;;0.80;0.80;;;;;30.50;95823.00;;;;5039485;28;20209;-86
2023/08/02 14:32:47;;;;;;;1.70;1.45;;;;;29.50;95858.00;;;;5041854;28;20213;-87
2023/08/02 14:35:36;;;;;;;1.10;1.00;;;;;29.20;95844.00;;;;5048276;28;20200;-84
2023/08/02 14:38:25;;;;;;;1.27;1.17;;;;;30.40;95834.00;;;;5048941;28;20193;-85